createdAt,value
2023-04-13T00:00:41.454Z,3.40
2023-04-13T00:03:12.222Z,3.53
2023-04-13T00:05:39.886Z,3.50
2023-04-13T00:08:07.646Z,3.30
2023-04-13T00:10:36.425Z,3.08
2023-04-13T00:13:05.392Z,3.10
2023-04-13T00:15:34.757Z,3.47
2023-04-13T00:18:02.174Z,3.00
2023-04-13T00:20:30.126Z,3.15
2023-04-13T00:22:57.248Z,2.90
2023-04-13T00:25:24.126Z,2.60
2023-04-13T00:27:56.153Z,2.80
2023-04-13T00:30:23.123Z,2.85
2023-04-13T00:32:50.390Z,2.22
2023-04-13T00:35:20.090Z,2.40
2023-04-13T00:37:49.982Z,2.30
2023-04-13T00:40:16.969Z,2.13
2023-04-13T00:42:48.512Z,1.70
2023-04-13T00:45:16.044Z,1.90
2023-04-13T00:47:46.623Z,1.77
2023-04-13T00:50:16.488Z,1.58
2023-04-13T00:52:43.896Z,2.28
2023-04-13T00:55:12.277Z,1.30
2023-04-13T00:57:41.157Z,1.50
2023-04-13T01:00:12.689Z,1.83
2023-04-13T01:02:42.923Z,1.45
2023-04-13T01:05:14.385Z,1.80
2023-04-13T01:08:09.313Z,2.03
2023-04-13T01:10:44.985Z,2.20
2023-04-13T01:13:40.585Z,1.58
2023-04-13T01:16:20.679Z,1.65
2023-04-13T01:18:52.755Z,1.40
2023-04-13T01:21:24.819Z,1.38
2023-04-13T01:24:06.949Z,1.52
2023-04-13T01:26:50.415Z,1.80
2023-04-13T01:29:18.515Z,1.80
2023-04-13T01:31:45.762Z,2.33
2023-04-13T01:34:12.947Z,1.73
2023-04-13T01:36:40.568Z,1.67
2023-04-13T01:39:10.578Z,1.50
2023-04-13T01:41:38.382Z,1.45
2023-04-13T01:44:05.439Z,1.38
2023-04-13T01:46:35.336Z,1.65
2023-04-13T01:49:10.417Z,1.83
2023-04-13T01:51:51.248Z,1.52
2023-04-13T01:54:25.736Z,1.65
2023-04-13T01:56:54.746Z,1.40
2023-04-13T01:59:22.572Z,1.85
2023-04-13T02:01:49.782Z,1.80
2023-04-13T02:04:16.681Z,1.40
2023-04-13T02:06:46.795Z,2.13
2023-04-13T02:09:14.575Z,1.92
2023-04-13T02:11:42.022Z,1.63
2023-04-13T02:14:09.566Z,1.90
2023-04-13T02:16:36.417Z,1.70
2023-04-13T02:19:03.471Z,1.50
2023-04-13T02:21:30.702Z,1.75
2023-04-13T02:23:58.049Z,1.33
2023-04-13T02:26:26.311Z,2.00
2023-04-13T02:28:53.346Z,1.80
2023-04-13T02:31:23.719Z,2.17
2023-04-13T02:33:51.633Z,1.85
2023-04-13T02:36:19.206Z,2.28
2023-04-13T02:39:12.482Z,2.20
2023-04-13T02:41:43.073Z,2.17
2023-04-13T02:44:14.865Z,2.35
2023-04-13T02:46:52.688Z,2.00
2023-04-13T02:49:19.692Z,2.40
2023-04-13T02:52:06.857Z,2.42
2023-04-13T02:54:54.317Z,2.42
2023-04-13T02:57:25.246Z,2.40
2023-04-13T02:59:53.983Z,2.20
2023-04-13T03:02:23.366Z,2.40
2023-04-13T03:04:50.814Z,2.03
2023-04-13T03:07:18.640Z,1.88
2023-04-13T03:09:49.675Z,1.88
2023-04-13T03:12:17.344Z,2.17
2023-04-13T03:14:46.890Z,1.90
2023-04-13T03:17:14.740Z,1.40
2023-04-13T03:19:42.009Z,1.90
2023-04-13T03:22:10.065Z,1.85
2023-04-13T03:24:42.899Z,1.80
2023-04-13T03:27:11.695Z,1.65
2023-04-13T03:29:44.573Z,1.70
2023-04-13T03:34:48.968Z,2.15
2023-04-13T03:37:16.233Z,1.42
2023-04-13T03:39:43.320Z,1.80
2023-04-13T03:42:14.496Z,1.80
2023-04-13T03:44:48.289Z,1.80
2023-04-13T03:47:15.764Z,1.73
2023-04-13T03:49:42.547Z,1.75
2023-04-13T03:52:11.426Z,1.45
2023-04-13T03:54:46.888Z,1.85
2023-04-13T03:57:15.078Z,1.52
2023-04-13T03:59:43.094Z,1.70
2023-04-13T04:02:13.527Z,1.65
2023-04-13T04:04:41.713Z,1.90
2023-04-13T04:07:08.825Z,1.65
2023-04-13T04:09:36.268Z,1.83
2023-04-13T04:12:03.893Z,1.90
2023-04-13T04:14:39.530Z,1.80
2023-04-13T04:17:14.732Z,2.20
2023-04-13T04:19:41.751Z,2.63
2023-04-13T04:22:09.617Z,2.10
2023-04-13T04:24:40.067Z,2.30
2023-04-13T04:27:07.795Z,1.88
2023-04-13T04:29:34.761Z,2.00
2023-04-13T04:32:24.247Z,2.17
2023-04-13T04:34:53.095Z,1.60
2023-04-13T04:37:21.365Z,1.90
2023-04-13T04:40:00.816Z,1.83
2023-04-13T04:42:27.762Z,2.53
2023-04-13T04:44:57.259Z,2.35
2023-04-13T04:47:30.098Z,2.75
2023-04-13T04:50:12.940Z,2.70
2023-04-13T04:52:41.767Z,2.88
2023-04-13T04:55:12.282Z,3.17
2023-04-13T04:57:41.518Z,3.75
2023-04-13T05:00:11.029Z,3.95
2023-04-13T05:02:40.180Z,4.05
2023-04-13T05:05:11.659Z,3.97
2023-04-13T05:07:39.304Z,3.85
2023-04-13T05:10:08.019Z,3.85
2023-04-13T05:12:38.976Z,4.03
2023-04-13T05:15:06.509Z,3.78
2023-04-13T05:17:34.712Z,4.22
2023-04-13T05:20:02.099Z,3.92
2023-04-13T05:22:42.681Z,3.55
2023-04-13T05:25:10.584Z,3.75
2023-04-13T05:27:38.331Z,3.90
2023-04-13T05:30:09.721Z,3.78
2023-04-13T05:32:39.077Z,3.67
2023-04-13T05:35:07.802Z,4.20
2023-04-13T05:37:34.756Z,4.47
2023-04-13T05:40:01.760Z,4.22
2023-04-13T05:42:32.619Z,3.60
2023-04-13T05:45:00.412Z,4.90
2023-04-13T05:47:29.151Z,4.40
2023-04-13T05:50:00.411Z,4.78
2023-04-13T05:52:27.271Z,4.75
2023-04-13T05:54:54.731Z,4.00
2023-04-13T05:57:23.233Z,4.00
2023-04-13T05:59:53.262Z,3.58
2023-04-13T06:02:26.781Z,4.15
2023-04-13T06:04:55.004Z,3.67
2023-04-13T06:07:27.576Z,4.30
2023-04-13T06:09:57.491Z,4.07
2023-04-13T06:12:24.349Z,3.80
2023-04-13T06:14:52.679Z,2.75
2023-04-13T06:17:19.468Z,3.47
2023-04-13T06:19:46.608Z,3.20
2023-04-13T06:22:13.368Z,4.10
2023-04-13T06:24:43.900Z,4.78
2023-04-13T06:27:11.736Z,3.83
2023-04-13T06:29:41.701Z,3.40
2023-04-13T06:32:10.809Z,3.78
2023-04-13T06:34:37.882Z,3.20
2023-04-13T06:37:06.875Z,3.72
2023-04-13T06:39:43.152Z,3.05
2023-04-13T06:42:10.578Z,3.22
2023-04-13T06:44:56.409Z,3.22
2023-04-13T06:47:24.638Z,3.72
2023-04-13T06:49:51.897Z,3.75
2023-04-13T06:52:18.643Z,3.28
2023-04-13T06:54:45.376Z,3.28
2023-04-13T06:57:24.461Z,3.78
2023-04-13T06:59:51.286Z,3.63
2023-04-13T07:02:18.555Z,4.15
2023-04-13T07:04:45.507Z,3.65
2023-04-13T07:07:12.526Z,3.50
2023-04-13T07:09:39.645Z,3.50
2023-04-13T07:12:07.314Z,3.92
2023-04-13T07:14:38.589Z,4.22
2023-04-13T07:17:07.402Z,4.35
2023-04-13T07:19:41.116Z,4.15
2023-04-13T07:22:08.144Z,5.00
2023-04-13T07:24:36.097Z,4.45
2023-04-13T07:27:07.362Z,4.10
2023-04-13T07:29:34.559Z,4.25
2023-04-13T07:32:07.298Z,4.40
2023-04-13T07:34:36.654Z,4.30
2023-04-13T07:37:03.689Z,4.85
2023-04-13T07:39:32.277Z,4.40
2023-04-13T07:42:01.680Z,4.60
2023-04-13T07:44:38.006Z,4.05
2023-04-13T07:47:06.149Z,5.07
2023-04-13T07:49:36.456Z,4.15
2023-04-13T07:52:05.826Z,5.30
2023-04-13T07:54:38.394Z,4.15
2023-04-13T07:57:08.120Z,5.45
2023-04-13T07:59:38.290Z,4.57
2023-04-13T08:02:05.726Z,4.18
2023-04-13T08:04:34.943Z,5.13
2023-04-13T08:07:07.292Z,5.50
2023-04-13T08:09:40.052Z,5.18
2023-04-13T08:12:08.178Z,4.95
2023-04-13T08:14:39.478Z,5.00
2023-04-13T08:17:07.051Z,6.10
2023-04-13T08:19:35.590Z,6.30
2023-04-13T08:22:04.296Z,6.80
2023-04-13T08:24:31.120Z,6.07
2023-04-13T08:27:00.493Z,6.38
2023-04-13T08:29:27.844Z,6.25
2023-04-13T08:31:56.481Z,5.70
2023-04-13T08:34:23.456Z,5.03
2023-04-13T08:36:52.678Z,5.20
2023-04-13T08:39:19.508Z,5.88
2023-04-13T08:41:47.785Z,6.47
2023-04-13T08:44:17.778Z,5.43
2023-04-13T08:46:48.535Z,4.18
2023-04-13T08:49:20.389Z,5.15
2023-04-13T08:52:24.005Z,5.22
2023-04-13T08:54:55.764Z,4.22
2023-04-13T08:57:27.867Z,4.45
2023-04-13T08:59:57.421Z,4.20
2023-04-13T09:02:28.463Z,3.60
2023-04-13T09:05:09.672Z,3.55
2023-04-13T09:07:37.453Z,2.53
2023-04-13T09:10:10.740Z,2.33
2023-04-13T09:12:41.577Z,2.00
2023-04-13T09:15:11.406Z,2.20
2023-04-13T09:17:46.104Z,2.33
2023-04-13T09:20:22.165Z,2.53
2023-04-13T09:22:50.575Z,2.00
2023-04-13T09:25:24.828Z,1.77
2023-04-13T09:27:52.560Z,1.50
2023-04-13T09:30:24.526Z,1.92
2023-04-13T09:33:13.155Z,1.60
2023-04-13T09:35:39.979Z,1.63
2023-04-13T09:38:08.283Z,1.35
2023-04-13T09:40:38.281Z,1.70
2023-04-13T09:43:08.123Z,2.25
2023-04-13T09:45:39.404Z,1.80
2023-04-13T09:48:17.642Z,2.00
2023-04-13T09:50:44.910Z,2.03
2023-04-13T09:53:11.683Z,2.00
2023-04-13T09:55:39.341Z,2.30
2023-04-13T09:58:17.564Z,1.95
2023-04-13T10:00:46.580Z,2.05
2023-04-13T10:03:15.066Z,1.80
2023-04-13T10:05:57.951Z,2.10
2023-04-13T10:08:36.791Z,1.95
2023-04-13T10:11:13.665Z,1.50
2023-04-13T10:13:53.614Z,2.20
2023-04-13T10:16:33.998Z,1.70
2023-04-13T10:19:02.823Z,1.23
2023-04-13T10:21:35.604Z,1.10
2023-04-13T10:24:11.309Z,1.17
2023-04-13T10:26:39.724Z,1.42
2023-04-13T10:29:08.579Z,1.00
2023-04-13T10:31:39.110Z,1.15
2023-04-13T10:34:07.641Z,1.20
2023-04-13T10:36:38.712Z,1.58
2023-04-13T10:39:05.637Z,1.60
2023-04-13T10:41:32.681Z,2.13
2023-04-13T10:44:04.571Z,1.92
2023-04-13T10:46:34.124Z,1.65
2023-04-13T10:49:02.553Z,2.25
2023-04-13T10:51:42.851Z,2.17
2023-04-13T10:54:10.899Z,2.05
2023-04-13T10:56:38.115Z,2.40
2023-04-13T10:59:05.089Z,2.22
2023-04-13T11:01:32.175Z,1.83
2023-04-13T11:04:08.883Z,2.58
2023-04-13T11:06:38.917Z,2.50
2023-04-13T11:09:07.075Z,1.80
2023-04-13T11:11:37.031Z,1.90
2023-04-13T11:14:04.023Z,2.55
2023-04-13T11:16:31.345Z,2.35
2023-04-13T11:19:04.864Z,2.28
2023-04-13T11:21:35.764Z,2.20
2023-04-13T11:24:02.829Z,1.92
2023-04-13T11:26:34.257Z,1.90
2023-04-13T11:29:03.503Z,1.80
2023-04-13T11:31:37.677Z,1.75
2023-04-13T11:34:06.245Z,2.30
2023-04-13T11:36:33.655Z,1.67
2023-04-13T11:39:02.062Z,2.17
2023-04-13T11:41:32.245Z,1.27
2023-04-13T11:44:02.618Z,1.40
2023-04-13T11:46:29.375Z,1.50
2023-04-13T11:48:56.629Z,1.60
2023-04-13T11:51:24.492Z,1.92
2023-04-13T11:53:52.023Z,1.73
2023-04-13T11:56:19.309Z,2.60
2023-04-13T11:58:46.685Z,1.88
2023-04-13T12:01:19.350Z,1.85
2023-04-13T12:04:04.119Z,1.48
2023-04-13T12:06:42.228Z,1.65
2023-04-13T12:09:13.573Z,1.65
2023-04-13T12:11:49.565Z,1.58
2023-04-13T12:19:26.780Z,2.22
2023-04-13T12:21:56.849Z,1.77
2023-04-13T12:24:33.054Z,1.65
2023-04-13T12:29:38.879Z,1.55
2023-04-13T12:32:13.848Z,2.33
2023-04-13T12:34:43.895Z,2.33
2023-04-13T12:37:11.506Z,2.05
2023-04-13T12:39:38.577Z,1.80
2023-04-13T12:42:08.244Z,2.10
2023-04-13T12:44:34.920Z,2.13
2023-04-13T12:47:02.379Z,2.15
2023-04-13T12:49:30.209Z,1.92
2023-04-13T12:51:57.108Z,1.75
2023-04-13T12:54:23.780Z,1.70
2023-04-13T12:56:50.494Z,1.92
2023-04-13T12:59:17.682Z,1.65
2023-04-13T13:01:44.449Z,2.58
2023-04-13T13:04:11.261Z,1.85
2023-04-13T13:06:38.488Z,2.47
2023-04-13T13:09:05.944Z,1.80
2023-04-13T13:11:32.861Z,2.30
2023-04-13T13:13:59.892Z,1.92
2023-04-13T13:16:27.057Z,2.28
2023-04-13T13:18:53.866Z,1.83
2023-04-13T13:21:21.246Z,1.52
2023-04-13T13:23:48.016Z,1.52
2023-04-13T13:28:45.073Z,1.40
2023-04-13T13:31:12.941Z,1.63
2023-04-13T13:33:39.776Z,1.75
2023-04-13T13:36:07.580Z,1.85
2023-04-13T13:38:36.397Z,1.88
2023-04-13T13:41:03.594Z,2.15
2023-04-13T13:43:30.800Z,2.40
2023-04-13T13:45:57.678Z,2.03
2023-04-13T13:48:24.712Z,2.10
2023-04-13T13:51:01.083Z,2.15
2023-04-13T13:53:31.731Z,2.50
2023-04-13T13:55:58.442Z,1.73
2023-04-13T13:58:25.165Z,2.38
2023-04-13T14:00:51.989Z,2.17
2023-04-13T14:03:19.569Z,2.30
2023-04-13T14:05:46.481Z,2.25
2023-04-13T14:08:13.331Z,2.10
2023-04-13T14:10:41.689Z,1.92
2023-04-13T14:13:08.526Z,1.80
2023-04-13T14:15:35.713Z,2.00
2023-04-13T14:18:10.693Z,1.92
2023-04-13T14:20:39.793Z,2.25
2023-04-13T14:23:08.756Z,2.17
2023-04-13T14:25:35.596Z,2.10
2023-04-13T14:28:02.578Z,2.15
2023-04-13T14:30:30.153Z,2.70
2023-04-13T14:32:57.023Z,2.47
2023-04-13T14:35:24.495Z,2.63
2023-04-13T14:37:54.510Z,2.42
2023-04-13T14:40:23.050Z,2.00
2023-04-13T14:42:52.769Z,1.73
2023-04-13T14:45:22.593Z,2.08
2023-04-13T14:47:49.870Z,2.10
2023-04-13T14:50:18.166Z,2.30
2023-04-13T14:52:46.973Z,2.15
2023-04-13T14:55:14.637Z,2.63
2023-04-13T14:57:41.759Z,1.92
2023-04-13T15:00:21.240Z,2.30
2023-04-13T15:02:52.636Z,2.47
2023-04-13T15:05:20.484Z,2.03
2023-04-13T15:07:48.791Z,2.35
2023-04-13T15:10:18.415Z,2.28
2023-04-13T15:12:45.893Z,1.80
2023-04-13T15:15:13.088Z,3.22
2023-04-13T15:17:40.089Z,1.98
2023-04-13T15:20:08.041Z,2.63
2023-04-13T15:22:36.172Z,1.92
2023-04-13T15:25:03.329Z,2.05
2023-04-13T15:27:30.886Z,2.33
2023-04-13T15:29:59.959Z,2.25
2023-04-13T15:32:26.883Z,2.33
2023-04-13T15:34:56.189Z,2.40
2023-04-13T15:37:26.319Z,1.65
2023-04-13T15:39:54.670Z,2.17
2023-04-13T15:42:22.672Z,2.17
2023-04-13T15:44:49.677Z,1.60
2023-04-13T15:47:16.663Z,2.40
2023-04-13T15:49:43.414Z,1.80
2023-04-13T15:52:10.444Z,1.92
2023-04-13T15:54:37.695Z,1.98
2023-04-13T15:57:04.841Z,2.42
2023-04-13T15:59:34.017Z,2.33
2023-04-13T16:02:01.080Z,2.20
2023-04-13T16:04:28.233Z,2.30
2023-04-13T16:07:09.116Z,2.25
2023-04-13T16:09:39.233Z,2.03
2023-04-13T16:12:10.822Z,2.08
2023-04-13T16:14:44.658Z,2.33
2023-04-13T16:17:15.244Z,2.60
2023-04-13T16:19:47.407Z,2.05
2023-04-13T16:22:14.292Z,1.88
2023-04-13T16:24:41.963Z,1.95
2023-04-13T16:27:08.963Z,1.90
2023-04-13T16:29:35.649Z,1.90
2023-04-13T16:32:02.862Z,2.50
2023-04-13T16:34:29.662Z,2.20
2023-04-13T16:36:57.578Z,1.70
2023-04-13T16:39:24.471Z,2.33
2023-04-13T16:41:51.299Z,1.88
2023-04-13T16:44:18.024Z,1.83
2023-04-13T16:46:44.988Z,2.10
2023-04-13T16:49:12.597Z,2.45
2023-04-13T16:51:39.846Z,2.45
2023-04-13T16:54:06.646Z,1.85
2023-04-13T16:56:33.577Z,2.63
2023-04-13T16:59:01.251Z,2.90
2023-04-13T17:01:29.252Z,2.00
2023-04-13T17:03:56.619Z,2.05
2023-04-13T17:06:23.710Z,1.98
2023-04-13T17:08:50.465Z,1.83
2023-04-13T17:11:17.264Z,1.90
2023-04-13T17:13:44.037Z,2.05
2023-04-13T17:16:10.948Z,2.05
2023-04-13T17:18:38.028Z,1.38
2023-04-13T17:21:04.995Z,1.65
2023-04-13T17:23:31.794Z,1.50
2023-04-13T17:25:58.728Z,2.63
2023-04-13T17:28:25.613Z,2.17
2023-04-13T17:30:52.676Z,2.22
2023-04-13T17:33:19.670Z,2.03
2023-04-13T17:35:46.735Z,2.60
2023-04-13T17:38:14.261Z,1.50
2023-04-13T17:40:41.134Z,2.03
2023-04-13T17:43:10.147Z,1.88
2023-04-13T17:45:40.374Z,1.55
2023-04-13T17:48:07.654Z,2.05
2023-04-13T17:50:34.573Z,2.30
2023-04-13T17:53:03.943Z,2.00
2023-04-13T17:55:31.326Z,2.35
2023-04-13T17:57:59.487Z,1.80
2023-04-13T18:00:29.063Z,2.35
2023-04-13T18:02:56.073Z,2.42
2023-04-13T18:05:23.122Z,2.03
2023-04-13T18:07:49.916Z,1.65
2023-04-13T18:10:16.987Z,1.70
2023-04-13T18:12:43.866Z,1.65
2023-04-13T18:15:11.048Z,2.13
2023-04-13T18:17:38.858Z,1.65
2023-04-13T18:20:06.502Z,2.20
2023-04-13T18:22:34.565Z,1.50
2023-04-13T18:25:01.424Z,1.63
2023-04-13T18:27:28.108Z,1.55
2023-04-13T18:29:55.793Z,2.22
2023-04-13T18:32:23.336Z,1.70
2023-04-13T18:34:50.582Z,2.30
2023-04-13T18:37:17.308Z,2.20
2023-04-13T18:39:44.861Z,2.03
2023-04-13T18:42:11.820Z,2.92
2023-04-13T18:44:38.627Z,2.00
2023-04-13T18:47:08.529Z,1.80
2023-04-13T18:49:35.455Z,1.70
2023-04-13T18:52:02.299Z,2.00
2023-04-13T18:54:29.610Z,2.30
2023-04-13T18:56:56.288Z,1.83
2023-04-13T18:59:23.366Z,2.47
2023-04-13T19:01:50.192Z,2.00
2023-04-13T19:04:17.160Z,2.63
2023-04-13T19:06:44.173Z,3.65
2023-04-13T19:09:10.825Z,2.45
2023-04-13T19:11:54.072Z,2.33
2023-04-13T19:14:21.186Z,2.47
2023-04-13T19:16:48.183Z,2.35
2023-04-13T19:19:15.868Z,2.38
2023-04-13T19:21:42.844Z,2.38
2023-04-13T19:24:13.460Z,2.00
2023-04-13T19:26:40.845Z,1.80
2023-04-13T19:29:12.728Z,2.20
2023-04-13T19:31:45.428Z,2.33
2023-04-13T19:34:12.814Z,2.10
2023-04-13T19:36:40.287Z,2.40
2023-04-13T19:39:08.215Z,3.00
2023-04-13T19:41:36.979Z,2.42
2023-04-13T19:44:04.945Z,3.05
2023-04-13T19:46:35.124Z,3.30
2023-04-13T19:49:02.415Z,3.40
2023-04-13T19:51:33.074Z,3.50
2023-04-13T19:54:02.898Z,2.72
2023-04-13T19:56:34.455Z,3.15
2023-04-13T19:59:02.892Z,2.83
2023-04-13T20:01:33.842Z,2.85
2023-04-13T20:04:03.777Z,2.97
2023-04-13T20:06:33.140Z,2.55
2023-04-13T20:09:11.037Z,3.30
2023-04-13T20:11:38.665Z,2.97
2023-04-13T20:14:05.827Z,3.40
2023-04-13T20:16:32.846Z,2.55
2023-04-13T20:18:59.957Z,2.72
2023-04-13T20:21:30.974Z,2.50
2023-04-13T20:23:58.757Z,2.67
2023-04-13T20:26:28.045Z,2.92
2023-04-13T20:28:55.905Z,2.40
2023-04-13T20:31:22.791Z,2.20
2023-04-13T20:33:51.157Z,1.60
2023-04-13T20:36:21.118Z,1.85
2023-04-13T20:38:48.390Z,1.60
2023-04-13T20:41:15.217Z,1.92
2023-04-13T20:43:43.487Z,1.75
2023-04-13T20:46:10.441Z,1.70
2023-04-13T20:51:13.334Z,1.88
2023-04-13T20:53:40.067Z,1.60
2023-04-13T20:56:07.741Z,1.70
2023-04-13T20:58:34.553Z,1.90
2023-04-13T21:01:02.185Z,1.65
2023-04-13T21:03:30.808Z,2.03
2023-04-13T21:05:58.744Z,2.17
2023-04-13T21:08:26.516Z,1.67
2023-04-13T21:10:53.671Z,1.80
2023-04-13T21:13:20.635Z,1.90
2023-04-13T21:15:47.521Z,1.65
2023-04-13T21:18:14.295Z,1.95
2023-04-13T21:20:43.341Z,1.70
2023-04-13T21:23:10.340Z,1.98
2023-04-13T21:25:37.478Z,1.90
2023-04-13T21:28:04.619Z,1.90
2023-04-13T21:30:31.844Z,1.70
2023-04-13T21:32:58.826Z,1.33
2023-04-13T21:35:25.936Z,2.05
2023-04-13T21:37:52.683Z,2.60
2023-04-13T21:40:19.917Z,1.80
2023-04-13T21:42:46.623Z,3.30
2023-04-13T21:45:13.531Z,2.25
2023-04-13T21:47:40.472Z,1.92
2023-04-13T21:50:10.467Z,1.92
2023-04-13T21:52:37.376Z,2.78
2023-04-13T21:55:04.511Z,2.22
2023-04-13T21:57:31.707Z,2.67
2023-04-13T21:59:58.800Z,2.50
2023-04-13T22:02:26.371Z,2.33
2023-04-13T22:04:53.415Z,2.20
2023-04-13T22:07:26.025Z,2.10
2023-04-13T22:09:58.505Z,1.90
2023-04-13T22:12:25.486Z,2.40
2023-04-13T22:14:56.075Z,2.20
2023-04-13T22:17:22.980Z,2.55
2023-04-13T22:19:49.804Z,2.20
2023-04-13T22:22:17.997Z,2.13
2023-04-13T22:24:45.127Z,2.28
2023-04-13T22:27:12.086Z,2.50
2023-04-13T22:29:39.293Z,2.25
2023-04-13T22:32:06.241Z,1.85
2023-04-13T22:34:34.524Z,2.70
2023-04-13T22:37:01.490Z,2.38
2023-04-13T22:39:31.984Z,2.22
2023-04-13T22:42:01.898Z,3.17
2023-04-13T22:44:35.304Z,1.80
2023-04-13T22:47:02.957Z,2.65
2023-04-13T22:49:30.273Z,4.03
2023-04-13T22:51:57.437Z,2.10
2023-04-13T22:54:24.339Z,2.53
2023-04-13T22:56:52.928Z,3.22
2023-04-13T22:59:19.781Z,2.42
2023-04-13T23:01:47.038Z,2.05
2023-04-13T23:04:16.010Z,1.88
2023-04-13T23:06:43.466Z,2.10
2023-04-13T23:09:10.511Z,2.05
2023-04-13T23:11:37.719Z,1.95
2023-04-13T23:14:06.892Z,2.28
2023-04-13T23:16:34.818Z,2.40
2023-04-13T23:19:01.828Z,1.65
2023-04-13T23:21:31.082Z,2.28
2023-04-13T23:23:57.840Z,2.08
2023-04-13T23:26:25.199Z,3.20
2023-04-13T23:28:52.180Z,1.67
2023-04-13T23:31:19.197Z,2.40
2023-04-13T23:33:46.016Z,1.92
2023-04-13T23:36:13.116Z,1.88
2023-04-13T23:38:39.904Z,2.25
2023-04-13T23:41:06.613Z,2.00
2023-04-13T23:43:33.393Z,2.10
2023-04-13T23:46:00.332Z,1.80
2023-04-13T23:48:27.371Z,2.05
2023-04-13T23:50:54.719Z,2.50
2023-04-13T23:53:21.672Z,2.20
2023-04-13T23:55:48.534Z,2.00
2023-04-13T23:58:15.791Z,1.80
